KFWA/FWA METAR and TAF weather

Enter ICAO airport designator
Station Type Date Time Source
KFWA METAR 2019/08/25 17:54 UTC NOAA

KFWA 251754Z 07013KT 10SM FEW040 SCT220 BKN300 24/12 A3012 RMK AO2 SLP198 T02390117 10239 20139 58017


Station Type Date Time Source
KFWA Decoded METAR 2019/08/25 17:54 UTC NOAA

Station name not available
Aug 25, 2019 - 01:54 PM EDT / 2019.08.25 1754 UTC
Wind: from the ENE (070 degrees) at 15 MPH (13 KT):0
Visibility: 10 mile(s):0
Sky conditions: mostly cloudy
Temperature: 75.0 F (23.9 C)
Dew Point: 53.1 F (11.7 C)
Relative Humidity: 46%
Pressure (altimeter): 30.12 in. Hg (1019 hPa)
Pressure tendency: 0.05 inches (1.7 hPa) lower than three hours ago
ob: KFWA 251754Z 07013KT 10SM FEW040 SCT220 BKN300 24/12 A3012 RMK AO2 SLP198 T02390117 10239 20139 58017
cycle: 18

Station Type Date Time Source
KFWA TAF 2019/08/25 18:58 UTC NOAA

TAF
AMD KFWA 251758Z 2518/2618 10012KT P6SM SCT040 BKN300
FM260700 11007KT P6SM BKN250
FM261200 12008KT P6SM VCSH BKN035
FM261500 13009KT 5SM -SHRA BR OVC017

Example: see airport list